sensor_id;sensor_type;location;lat;lon;timestamp;P1;durP1;ratioP1;P2;durP2;ratioP2
7495;SDS011;3789;47.064;15.482;2022-11-20T00:00:11;28.73;;;15.50;;
7495;SDS011;3789;47.064;15.482;2022-11-20T00:02:47;27.47;;;15.73;;
7495;SDS011;3789;47.064;15.482;2022-11-20T00:05:17;25.83;;;14.70;;
7495;SDS011;3789;47.064;15.482;2022-11-20T00:07:45;27.63;;;15.50;;
7495;SDS011;3789;47.064;15.482;2022-11-20T00:10:15;30.83;;;16.47;;
7495;SDS011;3789;47.064;15.482;2022-11-20T00:12:45;29.83;;;15.70;;
7495;SDS011;3789;47.064;15.482;2022-11-20T00:15:21;18.93;;;12.13;;
7495;SDS011;3789;47.064;15.482;2022-11-20T00:17:52;28.37;;;14.30;;
7495;SDS011;3789;47.064;15.482;2022-11-20T00:20:22;35.37;;;20.47;;
7495;SDS011;3789;47.064;15.482;2022-11-20T00:22:54;37.93;;;18.87;;
7495;SDS011;3789;47.064;15.482;2022-11-20T00:25:23;41.20;;;19.83;;
7495;SDS011;3789;47.064;15.482;2022-11-20T00:27:54;40.83;;;20.23;;
7495;SDS011;3789;47.064;15.482;2022-11-20T00:30:22;45.17;;;21.50;;
7495;SDS011;3789;47.064;15.482;2022-11-20T00:32:51;44.47;;;22.87;;
7495;SDS011;3789;47.064;15.482;2022-11-20T00:35:19;49.03;;;22.20;;
7495;SDS011;3789;47.064;15.482;2022-11-20T00:37:49;42.40;;;22.37;;
7495;SDS011;3789;47.064;15.482;2022-11-20T00:40:27;44.87;;;21.67;;
7495;SDS011;3789;47.064;15.482;2022-11-20T00:43:03;43.90;;;21.67;;
7495;SDS011;3789;47.064;15.482;2022-11-20T00:45:31;40.13;;;21.57;;
7495;SDS011;3789;47.064;15.482;2022-11-20T00:48:01;41.90;;;21.13;;
7495;SDS011;3789;47.064;15.482;2022-11-20T00:50:31;39.60;;;20.83;;
7495;SDS011;3789;47.064;15.482;2022-11-20T00:53:01;42.03;;;20.23;;
7495;SDS011;3789;47.064;15.482;2022-11-20T00:55:30;43.33;;;22.20;;
7495;SDS011;3789;47.064;15.482;2022-11-20T00:57:58;42.17;;;21.50;;
7495;SDS011;3789;47.064;15.482;2022-11-20T01:00:32;40.70;;;20.07;;
7495;SDS011;3789;47.064;15.482;2022-11-20T01:03:09;43.27;;;21.97;;
7495;SDS011;3789;47.064;15.482;2022-11-20T01:08:48;43.77;;;20.20;;
7495;SDS011;3789;47.064;15.482;2022-11-20T01:11:21;42.27;;;21.40;;
7495;SDS011;3789;47.064;15.482;2022-11-20T01:13:51;44.17;;;20.93;;
7495;SDS011;3789;47.064;15.482;2022-11-20T01:16:30;39.30;;;18.80;;
7495;SDS011;3789;47.064;15.482;2022-11-20T01:19:01;36.47;;;18.47;;
7495;SDS011;3789;47.064;15.482;2022-11-20T01:21:35;36.53;;;18.73;;
7495;SDS011;3789;47.064;15.482;2022-11-20T01:24:08;34.83;;;18.63;;
7495;SDS011;3789;47.064;15.482;2022-11-20T01:26:46;42.07;;;20.73;;
7495;SDS011;3789;47.064;15.482;2022-11-20T01:29:23;38.43;;;21.30;;
7495;SDS011;3789;47.064;15.482;2022-11-20T01:31:54;42.03;;;20.67;;
7495;SDS011;3789;47.064;15.482;2022-11-20T01:34:22;37.47;;;19.57;;
7495;SDS011;3789;47.064;15.482;2022-11-20T01:36:53;36.50;;;19.63;;
7495;SDS011;3789;47.064;15.482;2022-11-20T01:39:24;37.67;;;19.30;;
7495;SDS011;3789;47.064;15.482;2022-11-20T01:41:55;30.77;;;15.60;;
7495;SDS011;3789;47.064;15.482;2022-11-20T01:48:18;43.90;;;19.00;;
7495;SDS011;3789;47.064;15.482;2022-11-20T01:50:53;39.73;;;19.80;;
7495;SDS011;3789;47.064;15.482;2022-11-20T01:53:24;44.33;;;20.13;;
7495;SDS011;3789;47.064;15.482;2022-11-20T01:56:00;41.97;;;20.50;;
7495;SDS011;3789;47.064;15.482;2022-11-20T01:58:33;42.23;;;20.93;;
7495;SDS011;3789;47.064;15.482;2022-11-20T02:01:07;44.40;;;21.03;;
7495;SDS011;3789;47.064;15.482;2022-11-20T02:03:59;47.50;;;22.27;;
7495;SDS011;3789;47.064;15.482;2022-11-20T02:06:35;46.53;;;21.70;;
7495;SDS011;3789;47.064;15.482;2022-11-20T02:09:26;41.70;;;19.80;;
7495;SDS011;3789;47.064;15.482;2022-11-20T02:11:56;46.67;;;21.73;;
7495;SDS011;3789;47.064;15.482;2022-11-20T02:15:04;37.47;;;19.83;;
7495;SDS011;3789;47.064;15.482;2022-11-20T02:17:31;44.33;;;20.47;;
7495;SDS011;3789;47.064;15.482;2022-11-20T02:20:00;37.13;;;19.63;;
7495;SDS011;3789;47.064;15.482;2022-11-20T02:22:46;47.97;;;21.40;;
7495;SDS011;3789;47.064;15.482;2022-11-20T02:25:37;42.57;;;20.40;;
7495;SDS011;3789;47.064;15.482;2022-11-20T02:28:18;38.63;;;19.50;;
7495;SDS011;3789;47.064;15.482;2022-11-20T02:30:49;51.33;;;22.23;;
7495;SDS011;3789;47.064;15.482;2022-11-20T02:33:19;45.27;;;20.70;;
7495;SDS011;3789;47.064;15.482;2022-11-20T02:35:49;38.27;;;19.37;;
7495;SDS011;3789;47.064;15.482;2022-11-20T02:38:17;40.83;;;18.83;;
7495;SDS011;3789;47.064;15.482;2022-11-20T02:40:46;38.67;;;19.30;;
7495;SDS011;3789;47.064;15.482;2022-11-20T02:43:23;39.43;;;19.03;;
7495;SDS011;3789;47.064;15.482;2022-11-20T02:45:51;34.83;;;18.63;;
7495;SDS011;3789;47.064;15.482;2022-11-20T02:48:19;36.57;;;17.67;;
7495;SDS011;3789;47.064;15.482;2022-11-20T02:50:59;30.30;;;16.83;;
7495;SDS011;3789;47.064;15.482;2022-11-20T02:53:30;31.60;;;18.20;;
7495;SDS011;3789;47.064;15.482;2022-11-20T02:56:08;32.73;;;17.20;;
7495;SDS011;3789;47.064;15.482;2022-11-20T02:58:36;31.83;;;17.10;;
7495;SDS011;3789;47.064;15.482;2022-11-20T03:01:03;31.20;;;16.63;;
7495;SDS011;3789;47.064;15.482;2022-11-20T03:03:32;30.37;;;16.30;;
7495;SDS011;3789;47.064;15.482;2022-11-20T03:06:02;36.13;;;20.30;;
7495;SDS011;3789;47.064;15.482;2022-11-20T03:08:33;36.83;;;18.93;;
7495;SDS011;3789;47.064;15.482;2022-11-20T03:11:11;26.47;;;16.63;;
7495;SDS011;3789;47.064;15.482;2022-11-20T03:13:42;30.63;;;17.77;;
7495;SDS011;3789;47.064;15.482;2022-11-20T03:16:12;34.63;;;18.53;;
7495;SDS011;3789;47.064;15.482;2022-11-20T03:18:51;33.27;;;17.83;;
7495;SDS011;3789;47.064;15.482;2022-11-20T03:21:20;31.37;;;17.33;;
7495;SDS011;3789;47.064;15.482;2022-11-20T03:23:52;28.40;;;16.53;;
7495;SDS011;3789;47.064;15.482;2022-11-20T03:26:23;26.57;;;16.17;;
7495;SDS011;3789;47.064;15.482;2022-11-20T03:28:54;25.27;;;15.53;;
7495;SDS011;3789;47.064;15.482;2022-11-20T03:31:32;24.07;;;15.90;;
7495;SDS011;3789;47.064;15.482;2022-11-20T03:34:11;28.50;;;15.27;;
7495;SDS011;3789;47.064;15.482;2022-11-20T03:36:42;26.77;;;15.87;;
7495;SDS011;3789;47.064;15.482;2022-11-20T03:39:11;23.43;;;14.27;;
7495;SDS011;3789;47.064;15.482;2022-11-20T03:41:48;22.73;;;13.37;;
7495;SDS011;3789;47.064;15.482;2022-11-20T03:44:26;19.83;;;13.30;;
7495;SDS011;3789;47.064;15.482;2022-11-20T03:46:54;19.00;;;12.13;;
7495;SDS011;3789;47.064;15.482;2022-11-20T03:49:25;19.53;;;12.23;;
7495;SDS011;3789;47.064;15.482;2022-11-20T03:51:54;16.50;;;11.83;;
7495;SDS011;3789;47.064;15.482;2022-11-20T03:54:24;17.07;;;11.60;;
7495;SDS011;3789;47.064;15.482;2022-11-20T03:56:52;19.83;;;11.17;;
7495;SDS011;3789;47.064;15.482;2022-11-20T03:59:21;19.27;;;11.43;;
7495;SDS011;3789;47.064;15.482;2022-11-20T04:01:53;20.33;;;11.53;;
7495;SDS011;3789;47.064;15.482;2022-11-20T04:04:20;14.70;;;10.17;;
7495;SDS011;3789;47.064;15.482;2022-11-20T04:07:04;12.47;;;8.60;;
7495;SDS011;3789;47.064;15.482;2022-11-20T04:09:33;11.63;;;8.03;;
7495;SDS011;3789;47.064;15.482;2022-11-20T04:12:02;10.77;;;7.83;;
7495;SDS011;3789;47.064;15.482;2022-11-20T04:14:45;12.70;;;8.83;;
7495;SDS011;3789;47.064;15.482;2022-11-20T04:17:22;10.63;;;7.70;;
7495;SDS011;3789;47.064;15.482;2022-11-20T04:19:51;12.67;;;8.00;;
7495;SDS011;3789;47.064;15.482;2022-11-20T04:22:19;12.77;;;8.50;;
7495;SDS011;3789;47.064;15.482;2022-11-20T04:24:48;12.47;;;8.27;;
7495;SDS011;3789;47.064;15.482;2022-11-20T04:27:21;11.77;;;8.13;;
7495;SDS011;3789;47.064;15.482;2022-11-20T04:29:49;13.77;;;8.50;;
7495;SDS011;3789;47.064;15.482;2022-11-20T04:32:26;16.40;;;8.53;;
7495;SDS011;3789;47.064;15.482;2022-11-20T04:34:58;15.07;;;9.37;;
7495;SDS011;3789;47.064;15.482;2022-11-20T04:37:34;15.20;;;9.17;;
7495;SDS011;3789;47.064;15.482;2022-11-20T04:40:09;13.07;;;7.93;;
7495;SDS011;3789;47.064;15.482;2022-11-20T04:42:39;20.50;;;9.83;;
7495;SDS011;3789;47.064;15.482;2022-11-20T04:45:07;18.67;;;9.23;;
7495;SDS011;3789;47.064;15.482;2022-11-20T04:47:36;17.97;;;10.20;;
7495;SDS011;3789;47.064;15.482;2022-11-20T04:50:04;22.60;;;9.57;;
7495;SDS011;3789;47.064;15.482;2022-11-20T04:52:39;30.53;;;10.43;;
7495;SDS011;3789;47.064;15.482;2022-11-20T04:55:09;15.77;;;10.00;;
7495;SDS011;3789;47.064;15.482;2022-11-20T04:57:39;19.43;;;10.70;;
7495;SDS011;3789;47.064;15.482;2022-11-20T05:00:09;25.07;;;12.83;;
7495;SDS011;3789;47.064;15.482;2022-11-20T05:02:37;21.30;;;11.47;;
7495;SDS011;3789;47.064;15.482;2022-11-20T05:05:09;15.13;;;9.37;;
7495;SDS011;3789;47.064;15.482;2022-11-20T05:07:37;17.30;;;9.77;;
7495;SDS011;3789;47.064;15.482;2022-11-20T05:10:07;16.17;;;10.70;;
7495;SDS011;3789;47.064;15.482;2022-11-20T05:12:37;18.40;;;11.03;;
7495;SDS011;3789;47.064;15.482;2022-11-20T05:15:06;18.53;;;10.80;;
7495;SDS011;3789;47.064;15.482;2022-11-20T05:17:34;17.80;;;10.73;;
7495;SDS011;3789;47.064;15.482;2022-11-20T05:20:04;15.03;;;9.77;;
7495;SDS011;3789;47.064;15.482;2022-11-20T05:22:35;15.53;;;9.73;;
7495;SDS011;3789;47.064;15.482;2022-11-20T05:25:12;17.70;;;10.13;;
7495;SDS011;3789;47.064;15.482;2022-11-20T05:27:40;22.50;;;10.60;;
7495;SDS011;3789;47.064;15.482;2022-11-20T05:30:11;22.00;;;10.57;;
7495;SDS011;3789;47.064;15.482;2022-11-20T05:32:41;16.50;;;10.10;;
7495;SDS011;3789;47.064;15.482;2022-11-20T05:35:10;17.10;;;10.07;;
7495;SDS011;3789;47.064;15.482;2022-11-20T05:37:41;21.10;;;10.57;;
7495;SDS011;3789;47.064;15.482;2022-11-20T05:40:12;17.80;;;10.13;;
7495;SDS011;3789;47.064;15.482;2022-11-20T05:42:43;13.07;;;8.80;;
7495;SDS011;3789;47.064;15.482;2022-11-20T05:45:15;19.40;;;9.80;;
7495;SDS011;3789;47.064;15.482;2022-11-20T05:47:50;20.33;;;11.27;;
7495;SDS011;3789;47.064;15.482;2022-11-20T05:50:19;23.67;;;11.60;;
7495;SDS011;3789;47.064;15.482;2022-11-20T05:52:49;9.90;;;7.57;;
7495;SDS011;3789;47.064;15.482;2022-11-20T05:55:20;34.60;;;16.67;;
7495;SDS011;3789;47.064;15.482;2022-11-20T05:57:53;37.43;;;16.83;;
7495;SDS011;3789;47.064;15.482;2022-11-20T06:00:21;33.30;;;17.13;;
7495;SDS011;3789;47.064;15.482;2022-11-20T06:03:00;33.77;;;18.30;;
7495;SDS011;3789;47.064;15.482;2022-11-20T06:05:28;41.67;;;20.77;;
7495;SDS011;3789;47.064;15.482;2022-11-20T06:08:14;39.40;;;20.10;;
7495;SDS011;3789;47.064;15.482;2022-11-20T06:10:43;41.23;;;21.27;;
7495;SDS011;3789;47.064;15.482;2022-11-20T06:13:12;43.50;;;21.13;;
7495;SDS011;3789;47.064;15.482;2022-11-20T06:15:47;43.40;;;22.33;;
7495;SDS011;3789;47.064;15.482;2022-11-20T06:18:25;43.63;;;23.10;;
7495;SDS011;3789;47.064;15.482;2022-11-20T06:21:03;40.03;;;21.30;;
7495;SDS011;3789;47.064;15.482;2022-11-20T06:23:43;47.63;;;22.23;;
7495;SDS011;3789;47.064;15.482;2022-11-20T06:26:17;40.43;;;21.10;;
7495;SDS011;3789;47.064;15.482;2022-11-20T06:28:46;43.60;;;22.07;;
7495;SDS011;3789;47.064;15.482;2022-11-20T06:31:17;36.03;;;21.33;;
7495;SDS011;3789;47.064;15.482;2022-11-20T06:33:47;36.27;;;20.93;;
7495;SDS011;3789;47.064;15.482;2022-11-20T06:36:15;39.27;;;21.07;;
7495;SDS011;3789;47.064;15.482;2022-11-20T06:38:45;36.30;;;19.77;;
7495;SDS011;3789;47.064;15.482;2022-11-20T06:41:22;37.20;;;19.30;;
7495;SDS011;3789;47.064;15.482;2022-11-20T06:43:58;31.70;;;18.67;;
7495;SDS011;3789;47.064;15.482;2022-11-20T06:46:33;36.93;;;20.23;;
7495;SDS011;3789;47.064;15.482;2022-11-20T06:49:04;35.70;;;19.50;;
7495;SDS011;3789;47.064;15.482;2022-11-20T06:51:34;46.20;;;22.00;;
7495;SDS011;3789;47.064;15.482;2022-11-20T06:54:04;39.53;;;19.57;;
7495;SDS011;3789;47.064;15.482;2022-11-20T06:56:32;33.90;;;18.60;;
7495;SDS011;3789;47.064;15.482;2022-11-20T06:59:03;38.43;;;19.13;;
7495;SDS011;3789;47.064;15.482;2022-11-20T07:01:37;36.93;;;17.03;;
7495;SDS011;3789;47.064;15.482;2022-11-20T07:04:08;30.77;;;16.73;;
7495;SDS011;3789;47.064;15.482;2022-11-20T07:06:36;35.30;;;18.07;;
7495;SDS011;3789;47.064;15.482;2022-11-20T07:09:05;27.37;;;16.53;;
7495;SDS011;3789;47.064;15.482;2022-11-20T07:11:40;77.77;;;19.50;;
7495;SDS011;3789;47.064;15.482;2022-11-20T07:14:07;65.30;;;19.80;;
7495;SDS011;3789;47.064;15.482;2022-11-20T07:16:45;66.60;;;18.57;;
7495;SDS011;3789;47.064;15.482;2022-11-20T07:19:15;35.50;;;18.43;;
7495;SDS011;3789;47.064;15.482;2022-11-20T07:21:47;35.40;;;20.00;;
7495;SDS011;3789;47.064;15.482;2022-11-20T07:24:16;33.57;;;18.00;;
7495;SDS011;3789;47.064;15.482;2022-11-20T07:26:46;45.67;;;16.53;;
7495;SDS011;3789;47.064;15.482;2022-11-20T07:29:24;49.27;;;19.03;;
7495;SDS011;3789;47.064;15.482;2022-11-20T07:31:54;33.83;;;18.53;;
7495;SDS011;3789;47.064;15.482;2022-11-20T07:34:22;36.93;;;18.20;;
7495;SDS011;3789;47.064;15.482;2022-11-20T07:36:52;69.70;;;18.43;;
7495;SDS011;3789;47.064;15.482;2022-11-20T07:39:21;56.63;;;18.27;;
7495;SDS011;3789;47.064;15.482;2022-11-20T07:41:52;98.83;;;19.27;;
7495;SDS011;3789;47.064;15.482;2022-11-20T07:44:22;26.90;;;16.70;;
7495;SDS011;3789;47.064;15.482;2022-11-20T07:46:51;29.37;;;17.47;;
7495;SDS011;3789;47.064;15.482;2022-11-20T07:49:20;30.57;;;17.93;;
7495;SDS011;3789;47.064;15.482;2022-11-20T07:51:57;29.17;;;16.50;;
7495;SDS011;3789;47.064;15.482;2022-11-20T07:54:30;27.73;;;16.47;;
7495;SDS011;3789;47.064;15.482;2022-11-20T07:57:08;31.67;;;17.23;;
7495;SDS011;3789;47.064;15.482;2022-11-20T07:59:38;30.50;;;17.47;;
7495;SDS011;3789;47.064;15.482;2022-11-20T08:02:10;26.93;;;15.57;;
7495;SDS011;3789;47.064;15.482;2022-11-20T08:04:40;24.23;;;15.47;;
7495;SDS011;3789;47.064;15.482;2022-11-20T08:07:08;23.83;;;14.57;;
7495;SDS011;3789;47.064;15.482;2022-11-20T08:09:38;23.17;;;15.27;;
7495;SDS011;3789;47.064;15.482;2022-11-20T08:12:07;24.33;;;15.20;;
7495;SDS011;3789;47.064;15.482;2022-11-20T08:15:08;23.57;;;14.70;;
7495;SDS011;3789;47.064;15.482;2022-11-20T08:17:40;19.87;;;12.70;;
7495;SDS011;3789;47.064;15.482;2022-11-20T08:20:22;23.73;;;15.93;;
7495;SDS011;3789;47.064;15.482;2022-11-20T08:22:57;22.90;;;16.03;;
7495;SDS011;3789;47.064;15.482;2022-11-20T08:25:28;22.07;;;14.33;;
7495;SDS011;3789;47.064;15.482;2022-11-20T08:27:58;22.03;;;14.77;;
7495;SDS011;3789;47.064;15.482;2022-11-20T08:30:32;19.80;;;13.53;;
7495;SDS011;3789;47.064;15.482;2022-11-20T08:33:01;22.33;;;15.33;;
7495;SDS011;3789;47.064;15.482;2022-11-20T08:35:35;25.00;;;14.73;;
7495;SDS011;3789;47.064;15.482;2022-11-20T08:38:03;21.83;;;14.97;;
7495;SDS011;3789;47.064;15.482;2022-11-20T08:40:34;23.83;;;15.27;;
7495;SDS011;3789;47.064;15.482;2022-11-20T08:43:03;22.33;;;14.47;;
7495;SDS011;3789;47.064;15.482;2022-11-20T08:45:32;20.63;;;15.10;;
7495;SDS011;3789;47.064;15.482;2022-11-20T08:48:02;23.67;;;14.67;;
7495;SDS011;3789;47.064;15.482;2022-11-20T08:50:31;20.37;;;14.73;;
7495;SDS011;3789;47.064;15.482;2022-11-20T08:53:05;23.77;;;15.50;;
7495;SDS011;3789;47.064;15.482;2022-11-20T08:55:35;22.20;;;14.70;;
7495;SDS011;3789;47.064;15.482;2022-11-20T08:58:04;22.93;;;14.73;;
7495;SDS011;3789;47.064;15.482;2022-11-20T09:00:41;19.03;;;13.60;;
7495;SDS011;3789;47.064;15.482;2022-11-20T09:03:11;19.37;;;13.87;;
7495;SDS011;3789;47.064;15.482;2022-11-20T09:05:39;19.67;;;13.80;;
7495;SDS011;3789;47.064;15.482;2022-11-20T09:08:10;21.97;;;14.43;;
7495;SDS011;3789;47.064;15.482;2022-11-20T09:10:45;18.57;;;13.67;;
7495;SDS011;3789;47.064;15.482;2022-11-20T09:13:22;21.30;;;14.63;;
7495;SDS011;3789;47.064;15.482;2022-11-20T09:15:58;22.20;;;14.67;;
7495;SDS011;3789;47.064;15.482;2022-11-20T09:18:29;21.27;;;13.80;;
7495;SDS011;3789;47.064;15.482;2022-11-20T09:21:08;17.30;;;11.90;;
7495;SDS011;3789;47.064;15.482;2022-11-20T09:23:43;19.93;;;13.40;;
7495;SDS011;3789;47.064;15.482;2022-11-20T09:26:18;19.40;;;13.60;;
7495;SDS011;3789;47.064;15.482;2022-11-20T09:28:49;18.37;;;12.50;;
7495;SDS011;3789;47.064;15.482;2022-11-20T09:31:24;19.53;;;13.13;;
7495;SDS011;3789;47.064;15.482;2022-11-20T09:33:58;19.83;;;13.60;;
7495;SDS011;3789;47.064;15.482;2022-11-20T09:36:35;18.10;;;13.90;;
7495;SDS011;3789;47.064;15.482;2022-11-20T09:39:06;17.30;;;12.63;;
7495;SDS011;3789;47.064;15.482;2022-11-20T09:56:18;18.77;;;14.17;;
7495;SDS011;3789;47.064;15.482;2022-11-20T09:58:54;21.27;;;14.07;;
7495;SDS011;3789;47.064;15.482;2022-11-20T10:01:31;16.77;;;12.27;;
7495;SDS011;3789;47.064;15.482;2022-11-20T10:04:16;20.33;;;13.90;;
7495;SDS011;3789;47.064;15.482;2022-11-20T10:09:42;18.90;;;12.80;;
7495;SDS011;3789;47.064;15.482;2022-11-20T10:21:01;10.40;;;7.90;;
7495;SDS011;3789;47.064;15.482;2022-11-20T10:27:29;12.63;;;9.23;;
7495;SDS011;3789;47.064;15.482;2022-11-20T10:30:21;12.77;;;10.10;;
7495;SDS011;3789;47.064;15.482;2022-11-20T10:33:03;11.93;;;9.80;;
7495;SDS011;3789;47.064;15.482;2022-11-20T10:35:42;13.13;;;9.47;;
7495;SDS011;3789;47.064;15.482;2022-11-20T10:38:24;14.77;;;11.73;;
7495;SDS011;3789;47.064;15.482;2022-11-20T10:41:04;15.63;;;12.27;;
7495;SDS011;3789;47.064;15.482;2022-11-20T10:44:38;15.43;;;10.77;;
7495;SDS011;3789;47.064;15.482;2022-11-20T10:47:14;15.93;;;11.73;;
7495;SDS011;3789;47.064;15.482;2022-11-20T10:49:46;14.77;;;11.03;;
7495;SDS011;3789;47.064;15.482;2022-11-20T11:01:19;10.87;;;8.73;;
7495;SDS011;3789;47.064;15.482;2022-11-20T11:03:54;10.13;;;7.23;;
7495;SDS011;3789;47.064;15.482;2022-11-20T11:06:37;10.17;;;7.50;;
7495;SDS011;3789;47.064;15.482;2022-11-20T11:09:21;12.37;;;9.27;;
7495;SDS011;3789;47.064;15.482;2022-11-20T11:12:06;14.00;;;10.53;;
7495;SDS011;3789;47.064;15.482;2022-11-20T11:14:49;25.37;;;16.53;;
7495;SDS011;3789;47.064;15.482;2022-11-20T11:17:32;21.27;;;14.83;;
7495;SDS011;3789;47.064;15.482;2022-11-20T11:20:06;26.20;;;17.87;;
7495;SDS011;3789;47.064;15.482;2022-11-20T11:25:35;24.27;;;17.23;;
7495;SDS011;3789;47.064;15.482;2022-11-20T11:28:21;26.67;;;17.47;;
7495;SDS011;3789;47.064;15.482;2022-11-20T11:30:56;24.53;;;18.00;;
7495;SDS011;3789;47.064;15.482;2022-11-20T11:33:30;23.23;;;15.87;;
7495;SDS011;3789;47.064;15.482;2022-11-20T11:36:03;24.63;;;16.23;;
7495;SDS011;3789;47.064;15.482;2022-11-20T11:38:45;21.63;;;16.53;;
7495;SDS011;3789;47.064;15.482;2022-11-20T11:41:28;23.47;;;16.20;;
7495;SDS011;3789;47.064;15.482;2022-11-20T11:44:12;16.83;;;13.70;;
7495;SDS011;3789;47.064;15.482;2022-11-20T11:47:26;15.97;;;12.30;;
7495;SDS011;3789;47.064;15.482;2022-11-20T11:50:08;11.80;;;8.53;;
7495;SDS011;3789;47.064;15.482;2022-11-20T11:58:46;12.87;;;10.40;;
7495;SDS011;3789;47.064;15.482;2022-11-20T12:11:16;11.67;;;8.97;;
7495;SDS011;3789;47.064;15.482;2022-11-20T12:13:25;10.23;;;7.80;;
7495;SDS011;3789;47.064;15.482;2022-11-20T12:16:10;8.87;;;7.37;;
7495;SDS011;3789;47.064;15.482;2022-11-20T12:18:51;8.57;;;7.67;;
7495;SDS011;3789;47.064;15.482;2022-11-20T12:30:21;7.60;;;6.47;;
7495;SDS011;3789;47.064;15.482;2022-11-20T12:45:09;6.33;;;4.83;;
7495;SDS011;3789;47.064;15.482;2022-11-20T12:48:16;6.07;;;4.67;;
7495;SDS011;3789;47.064;15.482;2022-11-20T12:51:19;3.97;;;3.57;;
7495;SDS011;3789;47.064;15.482;2022-11-20T13:00:30;6.47;;;5.53;;
7495;SDS011;3789;47.064;15.482;2022-11-20T13:03:21;7.03;;;6.13;;
7495;SDS011;3789;47.064;15.482;2022-11-20T13:06:16;7.83;;;6.33;;
7495;SDS011;3789;47.064;15.482;2022-11-20T13:08:56;7.20;;;6.27;;
7495;SDS011;3789;47.064;15.482;2022-11-20T13:17:21;7.07;;;6.10;;
7495;SDS011;3789;47.064;15.482;2022-11-20T13:19:55;7.10;;;6.23;;
7495;SDS011;3789;47.064;15.482;2022-11-20T13:22:27;8.13;;;6.50;;
7495;SDS011;3789;47.064;15.482;2022-11-20T13:25:08;6.83;;;6.07;;
7495;SDS011;3789;47.064;15.482;2022-11-20T13:27:59;7.07;;;6.37;;
7495;SDS011;3789;47.064;15.482;2022-11-20T13:30:51;5.37;;;4.23;;
7495;SDS011;3789;47.064;15.482;2022-11-20T13:36:04;5.43;;;4.40;;
7495;SDS011;3789;47.064;15.482;2022-11-20T13:38:44;4.83;;;3.87;;
7495;SDS011;3789;47.064;15.482;2022-11-20T13:41:29;5.10;;;4.03;;
7495;SDS011;3789;47.064;15.482;2022-11-20T13:45:00;3.90;;;3.23;;
7495;SDS011;3789;47.064;15.482;2022-11-20T13:47:23;4.47;;;4.07;;
7495;SDS011;3789;47.064;15.482;2022-11-20T13:49:53;3.67;;;3.30;;
7495;SDS011;3789;47.064;15.482;2022-11-20T14:01:40;4.20;;;3.43;;
7495;SDS011;3789;47.064;15.482;2022-11-20T14:04:18;4.77;;;3.60;;
7495;SDS011;3789;47.064;15.482;2022-11-20T14:07:07;3.70;;;3.07;;
7495;SDS011;3789;47.064;15.482;2022-11-20T14:09:38;3.43;;;3.10;;
7495;SDS011;3789;47.064;15.482;2022-11-20T14:12:17;3.60;;;3.30;;
7495;SDS011;3789;47.064;15.482;2022-11-20T14:14:54;3.93;;;3.50;;
7495;SDS011;3789;47.064;15.482;2022-11-20T14:17:34;4.20;;;3.80;;
7495;SDS011;3789;47.064;15.482;2022-11-20T14:20:05;5.03;;;4.37;;
7495;SDS011;3789;47.064;15.482;2022-11-20T14:22:52;4.80;;;4.30;;
7495;SDS011;3789;47.064;15.482;2022-11-20T14:25:24;3.60;;;3.30;;
7495;SDS011;3789;47.064;15.482;2022-11-20T14:27:55;5.53;;;4.00;;
7495;SDS011;3789;47.064;15.482;2022-11-20T14:30:29;5.73;;;4.50;;
7495;SDS011;3789;47.064;15.482;2022-11-20T14:33:15;4.97;;;4.10;;
7495;SDS011;3789;47.064;15.482;2022-11-20T14:35:47;6.33;;;5.07;;
7495;SDS011;3789;47.064;15.482;2022-11-20T14:38:20;6.17;;;4.73;;
7495;SDS011;3789;47.064;15.482;2022-11-20T14:40:53;5.13;;;4.30;;
7495;SDS011;3789;47.064;15.482;2022-11-20T14:43:32;6.93;;;4.77;;
7495;SDS011;3789;47.064;15.482;2022-11-20T14:46:05;5.60;;;4.43;;
7495;SDS011;3789;47.064;15.482;2022-11-20T14:48:47;4.80;;;4.30;;
7495;SDS011;3789;47.064;15.482;2022-11-20T14:51:25;5.83;;;5.13;;
7495;SDS011;3789;47.064;15.482;2022-11-20T14:54:27;6.37;;;5.20;;
7495;SDS011;3789;47.064;15.482;2022-11-20T14:57:04;8.03;;;5.57;;
7495;SDS011;3789;47.064;15.482;2022-11-20T14:59:46;5.67;;;5.07;;
7495;SDS011;3789;47.064;15.482;2022-11-20T15:02:15;7.63;;;5.67;;
7495;SDS011;3789;47.064;15.482;2022-11-20T15:05:01;7.03;;;6.17;;
7495;SDS011;3789;47.064;15.482;2022-11-20T15:08:06;6.30;;;5.70;;
7495;SDS011;3789;47.064;15.482;2022-11-20T15:10:44;6.70;;;5.97;;
7495;SDS011;3789;47.064;15.482;2022-11-20T15:13:32;6.50;;;5.80;;
7495;SDS011;3789;47.064;15.482;2022-11-20T15:16:27;7.40;;;6.10;;
7495;SDS011;3789;47.064;15.482;2022-11-20T15:19:08;6.53;;;5.57;;
7495;SDS011;3789;47.064;15.482;2022-11-20T15:21:48;5.97;;;5.37;;
7495;SDS011;3789;47.064;15.482;2022-11-20T15:24:18;6.50;;;5.60;;
7495;SDS011;3789;47.064;15.482;2022-11-20T15:26:50;6.90;;;6.07;;
7495;SDS011;3789;47.064;15.482;2022-11-20T15:29:28;7.27;;;6.27;;
7495;SDS011;3789;47.064;15.482;2022-11-20T15:31:58;7.30;;;6.60;;
7495;SDS011;3789;47.064;15.482;2022-11-20T15:34:39;7.97;;;7.13;;
7495;SDS011;3789;47.064;15.482;2022-11-20T15:37:10;8.60;;;7.43;;
7495;SDS011;3789;47.064;15.482;2022-11-20T15:39:40;9.00;;;7.73;;
7495;SDS011;3789;47.064;15.482;2022-11-20T15:42:08;8.30;;;7.47;;
7495;SDS011;3789;47.064;15.482;2022-11-20T15:44:38;10.23;;;7.47;;
7495;SDS011;3789;47.064;15.482;2022-11-20T15:47:09;8.00;;;7.10;;
7495;SDS011;3789;47.064;15.482;2022-11-20T15:49:41;8.40;;;7.60;;
7495;SDS011;3789;47.064;15.482;2022-11-20T15:52:09;8.97;;;7.40;;
7495;SDS011;3789;47.064;15.482;2022-11-20T15:54:40;8.83;;;7.93;;
7495;SDS011;3789;47.064;15.482;2022-11-20T15:57:12;9.33;;;8.17;;
7495;SDS011;3789;47.064;15.482;2022-11-20T15:59:40;10.03;;;8.90;;
7495;SDS011;3789;47.064;15.482;2022-11-20T16:02:14;9.67;;;8.40;;
7495;SDS011;3789;47.064;15.482;2022-11-20T16:04:49;9.07;;;8.13;;
7495;SDS011;3789;47.064;15.482;2022-11-20T16:07:21;9.30;;;7.93;;
7495;SDS011;3789;47.064;15.482;2022-11-20T16:09:49;9.87;;;8.57;;
7495;SDS011;3789;47.064;15.482;2022-11-20T16:12:28;12.20;;;10.93;;
7495;SDS011;3789;47.064;15.482;2022-11-20T16:15:15;11.90;;;10.60;;
7495;SDS011;3789;47.064;15.482;2022-11-20T16:18:06;17.00;;;11.47;;
7495;SDS011;3789;47.064;15.482;2022-11-20T16:20:38;18.50;;;11.90;;
7495;SDS011;3789;47.064;15.482;2022-11-20T16:23:15;14.80;;;11.87;;
7495;SDS011;3789;47.064;15.482;2022-11-20T16:25:45;13.53;;;11.97;;
7495;SDS011;3789;47.064;15.482;2022-11-20T16:28:25;18.17;;;12.33;;
7495;SDS011;3789;47.064;15.482;2022-11-20T16:30:53;15.73;;;11.73;;
7495;SDS011;3789;47.064;15.482;2022-11-20T16:33:23;12.40;;;10.37;;
7495;SDS011;3789;47.064;15.482;2022-11-20T16:35:53;15.27;;;11.37;;
7495;SDS011;3789;47.064;15.482;2022-11-20T16:38:22;15.83;;;11.80;;
7495;SDS011;3789;47.064;15.482;2022-11-20T16:40:53;17.13;;;11.63;;
7495;SDS011;3789;47.064;15.482;2022-11-20T16:43:29;13.83;;;11.17;;
7495;SDS011;3789;47.064;15.482;2022-11-20T16:46:03;15.73;;;12.60;;
7495;SDS011;3789;47.064;15.482;2022-11-20T16:48:32;14.87;;;11.27;;
7495;SDS011;3789;47.064;15.482;2022-11-20T16:51:01;15.23;;;11.97;;
7495;SDS011;3789;47.064;15.482;2022-11-20T16:53:32;15.50;;;12.10;;
7495;SDS011;3789;47.064;15.482;2022-11-20T16:56:10;15.73;;;12.43;;
7495;SDS011;3789;47.064;15.482;2022-11-20T16:58:47;19.93;;;13.27;;
7495;SDS011;3789;47.064;15.482;2022-11-20T17:01:28;24.30;;;12.60;;
7495;SDS011;3789;47.064;15.482;2022-11-20T17:04:01;16.20;;;12.60;;
7495;SDS011;3789;47.064;15.482;2022-11-20T17:06:38;16.73;;;13.40;;
7495;SDS011;3789;47.064;15.482;2022-11-20T17:09:15;30.17;;;14.07;;
7495;SDS011;3789;47.064;15.482;2022-11-20T17:11:43;17.20;;;13.53;;
7495;SDS011;3789;47.064;15.482;2022-11-20T17:14:14;17.77;;;13.63;;